KR6ZY-14 Weather Reports


Display with metric or nautical units.
time (UTC)temp
F
wind
direction
speed
MPH
gust
MPH
rain 1hr
in
rain 24hr
in
rain mn
in
humidity
%
barometer
mb
20210417061538 49 16 0.0 2.0 0.00 0.00 0.00 89
20210417060543 49 20 1.0 2.0 0.00 0.00 0.00 89
20210417055955 49 0.0 0.0 0.00 0.00 0.00 88
20210417054525 49 0.0 0.0 0.00 0.00 0.00 88
20210417053541 49 1 1.0 2.0 0.00 0.00 0.00 88
20210417052946 50 338 1.0 3.0 0.00 0.00 0.00 87
20210417051529 50 357 1.0 3.0 0.00 0.00 0.00 87
20210417050528 50 17 1.0 3.0 0.00 0.00 0.00 87
20210417045843 50 16 1.0 2.0 0.00 0.00 0.00 87
20210417044629 50 66 1.0 2.0 0.00 0.00 0.00 87
20210417043532 50 51 1.0 3.0 0.00 0.00 0.00 86
20210417042753 50 55 1.0 2.0 0.00 0.00 0.00 86
20210417041521 50 28 1.0 3.0 0.00 0.00 0.00 85
20210417040526 51 12 3.0 6.0 0.00 0.00 0.00 85
20210417035721 51 29 1.0 3.0 0.00 0.00 0.00 84
20210417034530 51 1 2.0 3.0 0.00 0.00 0.00 83
20210417033536 51 25 1.0 2.0 0.00 0.00 0.00 81
20210417032718 52 29 1.0 3.0 0.00 0.00 0.00 80
20210417031533 52 72 1.0 2.0 0.00 0.00 0.00 78
20210417030531 53 13 1.0 3.0 0.00 0.00 0.00 75
20210417025739 53 29 1.0 4.0 0.00 0.00 0.00 74
20210417024532 54 346 1.0 3.0 0.00 0.00 0.00 73
20210417023532 55 4 3.0 4.0 0.00 0.00 0.00 72
20210417022752 56 307 5.0 8.0 0.00 0.00 0.00 70
20210417021536 57 351 3.0 5.0 0.00 0.00 0.00 66
20210417020534 58 246 2.0 4.0 0.00 0.00 0.00 66
20210417015819 59 197 2.0 5.0 0.00 0.00 0.00 66
20210417014525 60 214 3.0 5.0 0.00 0.00 0.00 64
20210417013534 61 214 4.0 6.0 0.00 0.00 0.00 61
20210417012924 62 219 4.0 6.0 0.00 0.00 0.00 59
20210417011523 62 201 2.0 2.0 0.00 0.00 0.00 58
20210417010529 65 290 4.0 7.0 0.00 0.00 0.00 50
20210417005901 65 261 4.0 8.0 0.00 0.00 0.00 48
20210417004545 65 279 3.0 7.0 0.00 0.00 0.00 47
20210417003529 65 329 4.0 6.0 0.00 0.00 0.00 48
20210417002830 65 322 4.0 7.0 0.00 0.00 0.00 47
20210417001528 64 293 5.0 8.0 0.00 0.00 0.00 48
20210417000621 65 325 5.0 10.0 0.00 0.00 0.00 49
20210416235921 65 315 4.0 8.0 0.00 0.00 0.00 48
20210416234523 66 306 4.0 7.0 0.00 0.00 0.00 46
20210416233527 66 346 5.0 9.0 0.00 0.00 0.00 43
20210416232842 68 300 4.0 10.0 0.00 0.00 0.00 40
20210416231550 68 264 4.0 7.0 0.00 0.00 0.00 45
20210416230533 68 316 4.0 8.0 0.00 0.00 0.00 43
20210416225929 68 188 3.0 5.0 0.00 0.00 0.00 52
20210416224530 67 217 2.0 6.0 0.00 0.00 0.00 54
20210416223520 68 212 3.0 8.0 0.00 0.00 0.00 53
20210416222920 68 217 2.0 5.0 0.00 0.00 0.00 53
20210416221526 69 305 2.0 4.0 0.00 0.00 0.00 51
20210416220525 70 271 3.0 6.0 0.00 0.00 0.00 52
20210416215924 69 253 4.0 7.0 0.00 0.00 0.00 54
20210416214532 69 280 4.0 6.0 0.00 0.00 0.00 53
20210416213529 69 226 5.0 8.0 0.00 0.00 0.00 52
20210416212813 68 219 5.0 8.0 0.00 0.00 0.00 53
20210416211529 68 226 5.0 8.0 0.00 0.00 0.00 54
20210416210523 69 222 4.0 8.0 0.00 0.00 0.00 52
20210416205706 68 199 5.0 9.0 0.00 0.00 0.00 54
20210416204530 67 239 4.0 10.0 0.00 0.00 0.00 55
20210416203524 66 222 5.0 8.0 0.00 0.00 0.00 57
20210416202822 65 216 6.0 9.0 0.00 0.00 0.00 58
20210416201545 66 240 5.0 8.0 0.00 0.00 0.00 58
20210416200529 66 250 4.0 7.0 0.00 0.00 0.00 58
20210416195945 65 207 4.0 8.0 0.00 0.00 0.00 58
20210416194537 65 211 3.0 7.0 0.00 0.00 0.00 59
20210416193558 64 207 5.0 8.0 0.00 0.00 0.00 60
20210416193153 64 209 6.0 10.0 0.00 0.00 0.00 60
20210416191534 64 210 5.0 8.0 0.00 0.00 0.00 59
20210416190524 65 210 5.0 11.0 0.00 0.00 0.00 59
20210416185712 65 215 5.0 8.0 0.00 0.00 0.00 59
20210416184534 65 201 3.0 8.0 0.00 0.00 0.00 56
20210416183529 65 262 3.0 5.0 0.00 0.00 0.00 57
20210416182857 64 213 4.0 6.0 0.00 0.00 0.00 60
20210416181600 62 219 3.0 5.0 0.00 0.00 0.00 63
20210416180521 62 251 3.0 6.0 0.00 0.00 0.00 63
20210416175740 62 231 2.0 4.0 0.00 0.00 0.00 64
20210416174523 60 232 4.0 7.0 0.00 0.00 0.00 66
20210416173526 60 225 4.0 6.0 0.00 0.00 0.00 65
20210416172817 59 222 5.0 9.0 0.00 0.00 0.00 67
20210416171557 60 222 4.0 8.0 0.00 0.00 0.00 66
20210416170536 61 258 3.0 6.0 0.00 0.00 0.00 59
20210416165857 59 319 2.0 5.0 0.00 0.00 0.00 60
20210416164531 59 22 2.0 4.0 0.00 0.00 0.00 63
20210416163526 57 17 2.0 5.0 0.00 0.00 0.00 67
20210416162724 56 67 1.0 2.0 0.00 0.00 0.00 73
20210416161525 55 77 2.0 3.0 0.00 0.00 0.00 76
20210416160533 54 111 1.0 2.0 0.00 0.00 0.00 78
20210416155854 52 106 2.0 2.0 0.00 0.00 0.00 81
20210416154521 51 94 2.0 3.0 0.00 0.00 0.00 84
20210416153520 49 37 1.0 4.0 0.00 0.00 0.00 88
20210416152723 48 62 2.0 3.0 0.00 0.00 0.00 91
20210416151532 46 73 2.0 3.0 0.00 0.00 0.00 93
20210416150530 46 55 2.0 4.0 0.00 0.00 0.00 95
20210416145929 45 39 3.0 5.0 0.00 0.00 0.00 95
20210416144533 45 60 2.0 5.0 0.00 0.00 0.00 95
20210416143523 45 62 2.0 4.0 0.00 0.00 0.00 95
20210416142847 44 47 2.0 4.0 0.00 0.00 0.00 95
20210416141534 44 44 2.0 3.0 0.00 0.00 0.00 95
20210416140524 44 36 2.0 3.0 0.00 0.00 0.00 95
20210416135948 44 42 2.0 3.0 0.00 0.00 0.00 95
20210416134553 44 41 2.0 5.0 0.00 0.00 0.00 95
20210416133538 44 37 2.0 3.0 0.00 0.00 0.00 95
20210416132822 44 76 1.0 3.0 0.00 0.00 0.00 94
20210416131526 44 35 2.0 3.0 0.00 0.00 0.00 94
20210416130528 43 22 2.0 3.0 0.00 0.00 0.00 94
20210416124527 44 39 2.0 4.0 0.00 0.00 0.00 94
20210416123551 44 29 2.0 4.0 0.00 0.00 0.00 94
20210416121534 45 72 2.0 3.0 0.00 0.00 0.00 94
20210416120526 45 81 2.0 2.0 0.00 0.00 0.00 94
20210416115918 45 75 2.0 3.0 0.00 0.00 0.00 94
20210416114525 45 60 1.0 2.0 0.00 0.00 0.00 94
20210416113538 45 45 2.0 3.0 0.00 0.00 0.00 94
20210416112752 45 50 2.0 3.0 0.00 0.00 0.00 94
20210416111527 45 54 1.0 2.0 0.00 0.00 0.00 93
20210416110525 44 55 1.0 2.0 0.00 0.00 0.00 93
20210416105851 44 35 2.0 3.0 0.00 0.00 0.00 93
20210416104527 44 53 0.0 2.0 0.00 0.00 0.00 93
20210416103528 44 0.0 0.0 0.00 0.00 0.00 93
20210416102916 44 51 0.0 1.0 0.00 0.00 0.00 93
20210416101533 44 71 0.0 1.0 0.00 0.00 0.00 93
20210416100533 44 75 0.0 1.0 0.00 0.00 0.00 93
20210416095819 44 0.0 0.0 0.00 0.00 0.00 92
20210416094531 44 78 0.0 1.0 0.00 0.00 0.00 92
20210416093538 44 75 0.0 1.0 0.00 0.00 0.00 92
20210416092706 44 83 0.0 1.0 0.00 0.00 0.00 92
20210416091523 44 83 1.0 2.0 0.00 0.00 0.00 92
20210416090524 44 58 1.0 2.0 0.00 0.00 0.00 92
20210416085757 44 0.0 1.0 0.00 0.00 0.00 91
20210416084534 44 90 0.0 1.0 0.00 0.00 0.00 91
20210416083525 45 47 1.0 2.0 0.00 0.00 0.00 91
20210416082833 46 78 0.0 1.0 0.00 0.00 0.00 91
20210416081531 47 31 1.0 2.0 0.00 0.00 0.00 91
20210416080530 47 23 1.0 3.0 0.00 0.00 0.00 91
20210416075721 47 25 2.0 3.0 0.00 0.00 0.00 91
20210416074528 47 37 2.0 3.0 0.00 0.00 0.00 91
20210416073524 47 39 2.0 3.0 0.00 0.00 0.00 91
20210416072623 47 61 2.0 3.0 0.00 0.00 0.00 91
20210416071522 47 51 2.0 3.0 0.00 0.00 0.00 90
20210416070543 47 37 2.0 3.0 0.00 0.00 0.00 90
20210416065641 47 30 2.0 4.0 0.00 0.00 0.00 90
20210416064534 47 63 1.0 2.0 0.00 0.00 0.00 89
20210416063526 46 19 2.0 3.0 0.00 0.00 0.00 89
20210416062734 46 44 1.0 2.0 0.00 0.00 0.00 87